Reed City, Michigan
Current Conditions -  °F | °C
As of 4:55 PM on Saturday 25 Oct 2014 (Local Time) from KRQB Reporting Station
Clear Clear  
Wind Chill: 61°   Ceiling: Unl
Heat Index: 61°   Visibility: 10mi
Dew Point: 37°   Wind: 15mph
Humidity: 40%   Direction: 290°WNW
Pressure: 29.78"   Gusts: 30mph
Location:  43.88°N, 85.51°W
Report Text: KRQB 252055Z AUTO 29013G26KT 10SM CLR 16/03 A2978 RMK AO2 T01610025
Loading
Personal Weather Stations






























Interactive Weather Map
Tropical Storm Tracking
New forecast layout! Learn more

10-Day Weather Forecast

Advertisements
Track Severe Weather on mobile